»·PEaware :: AAY428 KPSP-KLAS

AAY428 :: KPSP-KLAS

FLIGHT INFORMATION

Flight Status: Arrived
Operator:
Allegiant Air
More flights by this operator :: More flights under this callsign
Pilot: Jack B. (5846)
Aircraft: AIRBUS A320
(A320)
More flights by this aircraft type
Origin: KPSP Palm Springs Intl
United States
Destination: KLAS McCarran Intl
United States
More flights between these airports :: More routes between these airports
Route: CATH1 PSP V370 TNP KEPEC6
File this flight plan on PilotEdge
Remarks:
Altitude:
(Current/Filed)
270ft
Speed:
(Current/Filed)
320kts
Departed: 07-May-19 03:15 PM
Arrived: 07-May-19 03:55 PM
Distance/Time
Traveled:
151nm/0:40
Distance/Time
To Go:
Arrived

Flight Plot

Page will automatically refresh every two minutes.

Flight plan parsing failed; only flown route is shown


Map Options




Map Legend


Flown Route
Filed Route
Departure Airport
Arrival Airport
Navaid (VOR, NDB)
Fix

Horizontal Profiles

Position Reports

Time Latitude Longitude Heading Altitude Ground
Speed
07-May-19 15:01 33.823717 -116.506182 225 418ft 0kts
07-May-19 15:02 33.823717 -116.506182 225 418ft 0kts
07-May-19 15:03 33.823717 -116.506182 225 418ft 0kts
07-May-19 15:04 33.823717 -116.506182 225 418ft 0kts
07-May-19 15:05 33.823717 -116.506182 225 418ft 0kts
07-May-19 15:06 33.823717 -116.506182 225 418ft 0kts
07-May-19 15:07 33.823717 -116.506182 225 418ft 0kts
07-May-19 15:08 33.823717 -116.506182 225 418ft 0kts
07-May-19 15:09 33.824246 -116.505681 173 418ft 0kts
07-May-19 15:10 33.824182 -116.505664 165 418ft 4kts
07-May-19 15:11 33.822117 -116.502958 143 412ft 25kts
07-May-19 15:12 33.818445 -116.498894 104 400ft 0kts
07-May-19 15:13 33.818592 -116.498238 54 399ft 9kts
07-May-19 15:14 33.836068 -116.513471 322 1017ft 142kts
07-May-19 15:15 33.873562 -116.549282 321 3098ft 212kts
07-May-19 15:16 33.931589 -116.573423 33 5771ft 266kts
07-May-19 15:17 33.920588 -116.493506 132 8566ft 298kts
07-May-19 15:18 33.923361 -116.406179 59 11257ft 298kts
07-May-19 15:19 33.956389 -116.306842 66 13224ft 342kts
07-May-19 15:20 33.990040 -116.192815 67 15210ft 380kts
07-May-19 15:21 34.025693 -116.070137 66 17307ft 398kts
07-May-19 15:22 34.062655 -115.942315 66 19276ft 411kts
07-May-19 15:23 34.100625 -115.811435 66 21151ft 416kts
07-May-19 15:24 34.169909 -115.706111 38 22825ft 409kts
07-May-19 15:25 34.253912 -115.610844 37 24340ft 423kts
07-May-19 15:26 34.346226 -115.522152 15 25891ft 421kts
07-May-19 15:27 34.458045 -115.481659 351 27026ft 423kts
07-May-19 15:28 34.575025 -115.512310 348 27012ft 442kts
07-May-19 15:29 34.696601 -115.531315 349 27011ft 442kts
07-May-19 15:30 34.818441 -115.549855 350 26922ft 444kts
07-May-19 15:31 34.940141 -115.568270 350 27010ft 444kts
07-May-19 15:32 35.062592 -115.586863 350 26911ft 445kts
07-May-19 15:33 35.183321 -115.605128 350 25767ft 425kts
07-May-19 15:34 35.296732 -115.622252 351 23377ft 402kts
07-May-19 15:35 35.404680 -115.638580 351 20972ft 383kts
07-May-19 15:36 35.505975 -115.653953 351 18610ft 368kts
07-May-19 15:37 35.606045 -115.669160 351 16062ft 356kts
07-May-19 15:38 35.692717 -115.651455 39 13521ft 319kts
07-May-19 15:39 35.755411 -115.581926 22 13032ft 297kts
07-May-19 15:40 35.836636 -115.571630 1 13028ft 295kts
07-May-19 15:41 35.918574 -115.566588 1 13028ft 295kts
07-May-19 15:42 35.982628 -115.520651 65 12096ft 307kts
07-May-19 15:43 36.016072 -115.421724 67 10152ft 314kts
07-May-19 15:44 36.026067 -115.317280 93 8390ft 311kts
07-May-19 15:45 36.019059 -115.211591 96 6679ft 305kts
07-May-19 15:46 36.012528 -115.115637 95 6162ft 263kts
07-May-19 15:47 36.006944 -115.027328 94 5729ft 258kts
07-May-19 15:48 36.009194 -114.946070 46 5164ft 225kts
07-May-19 15:49 36.055177 -114.962440 312 4325ft 198kts
07-May-19 15:50 36.074159 -115.012323 270 3644ft 144kts
07-May-19 15:51 36.073789 -115.061886 266 3200ft 147kts
07-May-19 15:52 36.073637 -115.111347 264 2368ft 150kts
07-May-19 15:53 36.073622 -115.151059 266 2122ft 53kts
07-May-19 15:54 36.077723 -115.158126 41 2144ft 22kts
07-May-19 15:55 36.077889 -115.149051 95 2108ft 36kts
07-May-19 15:56 36.078597 -115.137762 6 2072ft 19kts
07-May-19 15:57 36.080245 -115.136133 61 2064ft 0kts
07-May-19 15:58 36.080245 -115.136133 61 2064ft 0kts
07-May-19 15:59 36.080245 -115.136133 61 2064ft 0kts
07-May-19 16:00 36.080245 -115.136133 61 2064ft 0kts
07-May-19 16:01 36.080245 -115.136133 61 2064ft 0kts

Navigation Log

Ident Type
Flight plan parsing failed, navigation log unavailable